Time;durP1;ratioP1;P1;durP2;ratioP2;P2;SDS_P1;SDS_P2;PMS_P1;PMS_P2;Temp;Humidity;BMP_temperature;BMP_pressure;BME280_temperature;BME280_humidity;BME280_pressure;Samples;Min_cycle;Max_cycle;Signal;HPM_P1;HPM_P2
2023/07/05 00:00:40;;;;;;;11.40;6.80;;;;;;;15.43;69.56;97203.27;110797;1239;100176;-79
2023/07/05 00:03:27;;;;;;;15.10;6.90;;;;;;;15.34;69.88;97201.21;110817;1239;94159;-79
2023/07/05 00:05:53;;;;;;;11.00;7.50;;;;;;;15.32;69.72;97204.23;111108;1236;94198;-79
2023/07/05 00:08:22;;;;;;;9.70;6.60;;;;;;;15.31;69.74;97206.89;111158;1236;94085;-79
2023/07/05 00:10:48;;;;;;;11.90;7.00;;;;;;;15.30;69.95;97201.85;111168;1236;94187;-79
2023/07/05 00:13:14;;;;;;;10.90;6.50;;;;;;;15.24;70.03;97203.11;111143;1236;94116;-79
2023/07/05 00:15:47;;;;;;;12.10;7.00;;;;;;;15.19;70.30;97204.05;111109;1236;94118;-79
2023/07/05 00:18:13;;;;;;;8.90;6.70;;;;;;;15.20;70.18;97206.08;111167;1236;94168;-79
2023/07/05 00:20:39;;;;;;;10.80;7.10;;;;;;;15.20;70.40;97207.88;111149;1236;94146;-79
2023/07/05 00:23:06;;;;;;;15.70;7.70;;;;;;;15.19;70.27;97205.26;111140;1236;94383;-79
2023/07/05 00:25:32;;;;;;;11.60;6.60;;;;;;;15.17;70.30;97206.73;111155;1236;94140;-79
2023/07/05 00:27:58;;;;;;;9.70;6.80;;;;;;;15.16;70.36;97204.93;111147;1236;94427;-79
2023/07/05 00:30:24;;;;;;;10.40;7.10;;;;;;;15.13;70.37;97204.27;111138;1236;94538;-79
2023/07/05 00:32:51;;;;;;;9.40;6.80;;;;;;;15.04;70.44;97202.75;111172;1236;94195;-79
2023/07/05 00:35:17;;;;;;;9.40;6.60;;;;;;;14.91;70.71;97198.33;111126;1236;94126;-79
2023/07/05 00:37:43;;;;;;;14.80;7.80;;;;;;;14.85;70.99;97205.02;111104;1237;94558;-79
2023/07/05 00:40:10;;;;;;;12.10;7.10;;;;;;;14.84;71.03;97208.66;111101;1236;94523;-79
2023/07/05 00:42:36;;;;;;;11.50;8.20;;;;;;;14.84;71.15;97211.25;111094;1236;94129;-79
2023/07/05 00:45:32;;;;;;;12.50;8.10;;;;;;;14.83;71.17;97210.47;111153;1236;94100;-79
2023/07/05 00:47:58;;;;;;;13.50;8.30;;;;;;;14.85;71.27;97203.99;110917;1236;94337;-79
2023/07/05 00:50:28;;;;;;;11.80;8.20;;;;;;;14.84;71.28;97201.19;111121;1236;94271;-79
2023/07/05 00:52:55;;;;;;;15.20;8.20;;;;;;;14.82;71.32;97201.64;111143;1236;100266;-79
2023/07/05 00:55:23;;;;;;;14.40;7.90;;;;;;;14.83;71.37;97200.20;111135;1238;94416;-79
2023/07/05 00:57:50;;;;;;;13.40;8.10;;;;;;;14.83;71.31;97199.11;110751;1241;94231;-79
2023/07/05 01:00:21;;;;;;;12.30;8.20;;;;;;;14.79;71.26;97200.05;110807;1241;94247;-79
2023/07/05 01:02:53;;;;;;;12.50;8.50;;;;;;;14.70;71.41;97201.96;110491;1240;102400;-79
2023/07/05 01:05:20;;;;;;;13.40;8.20;;;;;;;14.68;71.72;97201.88;110827;1241;101566;-79
2023/07/05 01:07:47;;;;;;;12.10;8.80;;;;;;;14.67;71.90;97201.52;110770;1240;94394;-79
2023/07/05 01:10:21;;;;;;;12.00;8.90;;;;;;;14.67;71.89;97197.45;110732;1240;94423;-79
2023/07/05 01:12:53;;;;;;;15.00;9.30;;;;;;;14.66;71.95;97193.30;110769;1240;94539;-79
2023/07/05 01:15:29;;;;;;;15.10;8.40;;;;;;;14.67;71.96;97190.11;110773;1241;102186;-79
2023/07/05 01:18:11;;;;;;;12.00;8.40;;;;;;;14.67;72.07;97188.20;110771;1241;100204;-79
2023/07/05 01:21:11;;;;;;;11.20;8.80;;;;;;;14.65;71.90;97186.86;110780;1240;98311;-79
2023/07/05 01:24:11;;;;;;;15.30;8.50;;;;;;;14.63;71.89;97183.23;110725;1240;94179;-79
2023/07/05 01:27:06;;;;;;;13.00;8.00;;;;;;;14.58;72.18;97181.45;110484;1240;94604;-79
2023/07/05 01:29:57;;;;;;;12.50;8.80;;;;;;;14.57;72.20;97186.05;110758;1236;102382;-79
2023/07/05 01:32:48;;;;;;;14.10;8.70;;;;;;;14.54;72.13;97184.75;111104;1238;101614;-79
2023/07/05 01:35:21;;;;;;;12.50;8.80;;;;;;;14.50;72.38;97183.14;111106;1236;100026;-79
2023/07/05 01:37:47;;;;;;;15.30;8.70;;;;;;;14.49;72.40;97182.03;111075;1236;94162;-79
2023/07/05 01:40:13;;;;;;;17.50;9.20;;;;;;;14.48;72.20;97181.59;111099;1236;94528;-79
2023/07/05 01:42:42;;;;;;;14.30;8.00;;;;;;;14.46;72.21;97180.90;111121;1236;94183;-79
2023/07/05 01:45:09;;;;;;;11.90;7.90;;;;;;;14.43;72.32;97181.86;111107;1236;94147;-80
2023/07/05 01:47:45;;;;;;;13.90;8.60;;;;;;;14.40;72.23;97181.20;111077;1236;94163;-79
2023/07/05 01:50:25;;;;;;;15.70;9.10;;;;;;;14.39;72.18;97181.75;111064;1236;94538;-79
2023/07/05 01:52:58;;;;;;;15.70;9.40;;;;;;;14.37;72.30;97182.09;111119;1236;94430;-79
2023/07/05 01:55:35;;;;;;;14.10;9.00;;;;;;;14.30;72.36;97179.23;111153;1236;102338;-79
2023/07/05 01:58:09;;;;;;;18.00;11.60;;;;;;;14.19;72.60;97177.04;111122;1236;99823;-79
2023/07/05 02:00:38;;;;;;;17.40;11.50;;;;;;;14.13;72.80;97177.73;111064;1240;99694;-79
2023/07/05 02:03:12;;;;;;;23.00;13.40;;;;;;;14.12;72.97;97174.13;111054;1240;94089;-80
2023/07/05 02:05:38;;;;;;;20.90;12.80;;;;;;;14.05;73.02;97174.46;111154;1236;94519;-79
2023/07/05 02:08:05;;;;;;;20.30;12.70;;;;;;;14.00;73.41;97174.48;111150;1236;94228;-79
2023/07/05 02:10:32;;;;;;;19.60;12.40;;;;;;;14.00;73.48;97176.01;111154;1236;94405;-79
2023/07/05 02:13:03;;;;;;;22.00;11.90;;;;;;;14.02;73.41;97177.17;111084;1236;94563;-79
2023/07/05 02:15:29;;;;;;;17.90;11.30;;;;;;;14.03;73.48;97181.50;111081;1236;94144;-79
2023/07/05 02:17:55;;;;;;;20.30;11.50;;;;;;;14.03;73.56;97187.52;111143;1236;94116;-79
2023/07/05 02:20:21;;;;;;;19.10;11.80;;;;;;;14.01;73.59;97191.21;111144;1236;94336;-79
2023/07/05 02:22:48;;;;;;;20.20;12.10;;;;;;;14.02;73.58;97189.75;111228;1236;94138;-79
2023/07/05 02:25:14;;;;;;;19.70;11.30;;;;;;;14.00;73.44;97188.61;111090;1236;94115;-79
2023/07/05 02:27:40;;;;;;;19.70;10.90;;;;;;;13.98;73.54;97187.13;111151;1240;94574;-79
2023/07/05 02:30:09;;;;;;;20.70;11.70;;;;;;;13.90;73.35;97184.14;111088;1236;94245;-79
2023/07/05 02:32:36;;;;;;;17.60;10.30;;;;;;;13.81;73.44;97185.27;111122;1236;94136;-79
2023/07/05 02:35:02;;;;;;;13.30;9.20;;;;;;;13.75;73.64;97181.80;111119;1236;94375;-79
2023/07/05 02:37:33;;;;;;;15.10;9.50;;;;;;;13.75;73.81;97185.27;111162;1236;94126;-79
2023/07/05 02:40:00;;;;;;;13.80;9.20;;;;;;;13.77;73.81;97183.92;111152;1236;102360;-79
2023/07/05 02:42:26;;;;;;;14.20;8.70;;;;;;;13.77;73.63;97183.17;111137;1236;94129;-79
2023/07/05 02:44:55;;;;;;;15.00;8.80;;;;;;;13.77;73.68;97183.29;111095;1236;94257;-79
2023/07/05 02:47:22;;;;;;;16.30;9.60;;;;;;;13.77;73.82;97183.39;111063;1236;94090;-79
2023/07/05 02:49:48;;;;;;;17.60;9.20;;;;;;;13.73;73.94;97185.44;111095;1236;94686;-79
2023/07/05 02:52:15;;;;;;;14.10;9.30;;;;;;;13.73;73.86;97184.40;111106;1236;94303;-79
2023/07/05 02:54:41;;;;;;;13.50;9.10;;;;;;;13.72;73.88;97183.98;111177;1236;94286;-79
2023/07/05 02:57:08;;;;;;;14.90;9.50;;;;;;;13.71;73.91;97181.20;111034;1236;94222;-79
2023/07/05 02:59:35;;;;;;;11.80;8.80;;;;;;;13.71;73.96;97180.67;111140;1236;94132;-79
2023/07/05 03:02:01;;;;;;;13.00;8.60;;;;;;;13.70;73.95;97180.59;111139;1236;94141;-79
2023/07/05 03:04:28;;;;;;;13.30;9.10;;;;;;;13.69;74.19;97180.04;111102;1236;94122;-79
2023/07/05 03:06:54;;;;;;;13.00;8.90;;;;;;;13.72;74.08;97178.81;111134;1236;94112;-79
2023/07/05 03:09:21;;;;;;;15.20;9.40;;;;;;;13.74;74.25;97177.15;111110;1236;94493;-79
2023/07/05 03:11:47;;;;;;;16.00;9.60;;;;;;;13.75;74.23;97180.89;111094;1236;94217;-79
2023/07/05 03:14:13;;;;;;;13.30;9.50;;;;;;;13.76;74.43;97178.39;111080;1236;94149;-79
2023/07/05 03:16:40;;;;;;;17.10;10.10;;;;;;;13.74;74.61;97178.40;111128;1236;94110;-79
2023/07/05 03:19:06;;;;;;;15.90;10.00;;;;;;;13.69;74.67;97182.69;111141;1236;94532;-79
2023/07/05 03:21:32;;;;;;;16.00;9.90;;;;;;;13.62;74.65;97178.90;111113;1236;94218;-79
2023/07/05 03:24:00;;;;;;;14.70;9.50;;;;;;;13.58;75.00;97177.64;111097;1236;94508;-79
2023/07/05 03:26:26;;;;;;;13.40;10.00;;;;;;;13.56;75.18;97177.17;111090;1236;94416;-79
2023/07/05 03:28:52;;;;;;;18.70;10.20;;;;;;;13.55;75.36;97179.70;111060;1236;134206;-79
2023/07/05 03:31:19;;;;;;;14.40;9.40;;;;;;;13.53;75.31;97179.10;111155;1236;102295;-79
2023/07/05 03:33:45;;;;;;;16.60;10.50;;;;;;;13.53;75.55;97183.23;111099;1236;94122;-79
2023/07/05 03:36:18;;;;;;;18.70;10.70;;;;;;;13.54;75.66;97183.50;111089;1236;94140;-79
2023/07/05 03:38:45;;;;;;;15.60;10.20;;;;;;;13.55;75.82;97182.36;111038;1236;94233;-79
2023/07/05 03:41:15;;;;;;;16.60;10.50;;;;;;;13.59;75.87;97183.38;111086;1236;94522;-80
2023/07/05 03:43:43;;;;;;;11.90;9.40;;;;;;;13.64;75.74;97183.86;111127;1236;102267;-79
2023/07/05 03:46:13;;;;;;;15.60;10.60;;;;;;;13.68;75.71;97186.67;111132;1236;100228;-79
2023/07/05 03:48:42;;;;;;;17.60;10.50;;;;;;;13.71;75.84;97184.25;111099;1240;100006;-79
2023/07/05 03:51:17;;;;;;;15.10;10.20;;;;;;;13.74;75.96;97185.50;111115;1236;94299;-79
2023/07/05 03:53:48;;;;;;;16.20;10.40;;;;;;;13.76;75.94;97182.52;111089;1236;94295;-80
2023/07/05 03:56:14;;;;;;;14.70;10.30;;;;;;;13.80;75.91;97182.54;111060;1236;102221;-80
2023/07/05 03:58:41;;;;;;;19.60;11.10;;;;;;;13.84;75.91;97184.27;111073;1236;94570;-80
2023/07/05 04:01:18;;;;;;;19.50;11.40;;;;;;;13.88;75.97;97183.77;111071;1240;94113;-80
2023/07/05 04:03:46;;;;;;;17.80;12.00;;;;;;;13.92;76.01;97184.73;111036;1236;94119;-80
2023/07/05 04:06:13;;;;;;;18.70;11.50;;;;;;;13.97;76.09;97184.36;111106;1236;94579;-80
2023/07/05 04:08:40;;;;;;;16.60;11.30;;;;;;;14.02;76.10;97186.08;111139;1239;94196;-80
2023/07/05 04:11:06;;;;;;;23.20;12.30;;;;;;;14.06;76.01;97185.46;111124;1236;94146;-80
2023/07/05 04:13:32;;;;;;;19.90;13.00;;;;;;;14.11;76.00;97184.49;111065;1236;94155;-80
2023/07/05 04:16:01;;;;;;;17.90;12.40;;;;;;;14.16;76.12;97183.76;111141;1236;94134;-80
2023/07/05 04:18:29;;;;;;;20.30;12.10;;;;;;;14.21;76.22;97182.84;111037;1236;100738;-80
2023/07/05 04:20:56;;;;;;;18.20;11.80;;;;;;;14.25;76.17;97179.84;111059;1236;101290;-80
2023/07/05 04:23:22;;;;;;;18.60;11.70;;;;;;;14.29;76.28;97183.24;111095;1238;94198;-80
2023/07/05 04:25:49;;;;;;;18.80;12.30;;;;;;;14.35;76.39;97182.77;111086;1236;94571;-80
2023/07/05 04:28:15;;;;;;;19.40;13.20;;;;;;;14.40;76.50;97183.16;111104;1236;94123;-80
2023/07/05 04:30:42;;;;;;;25.20;15.00;;;;;;;14.46;76.46;97178.94;111214;1236;94437;-80
2023/07/05 04:33:08;;;;;;;22.90;15.40;;;;;;;14.52;76.55;97178.88;111078;1236;99995;-80
2023/07/05 04:35:34;;;;;;;22.40;15.40;;;;;;;14.57;76.43;97185.63;111056;1236;94118;-80
2023/07/05 04:38:00;;;;;;;26.60;15.60;;;;;;;14.63;76.58;97185.61;111152;1236;94143;-80
2023/07/05 04:40:27;;;;;;;25.10;15.80;;;;;;;14.70;76.68;97186.64;111197;1236;94685;-80
2023/07/05 04:42:53;;;;;;;23.90;15.10;;;;;;;14.76;76.77;97188.16;111080;1236;100072;-80
2023/07/05 04:45:19;;;;;;;19.40;13.60;;;;;;;14.82;76.58;97185.08;111096;1236;94139;-80
2023/07/05 04:47:46;;;;;;;22.70;15.30;;;;;;;14.89;76.70;97184.33;111089;1240;94130;-80
2023/07/05 04:50:12;;;;;;;23.60;14.30;;;;;;;14.95;76.76;97184.83;111178;1236;94561;-80
2023/07/05 04:52:38;;;;;;;23.70;15.40;;;;;;;15.01;76.87;97182.69;111103;1236;100069;-80
2023/07/05 04:55:05;;;;;;;21.40;14.60;;;;;;;15.08;77.05;97183.91;111102;1236;94105;-80
2023/07/05 04:57:31;;;;;;;24.00;15.30;;;;;;;15.14;77.11;97183.53;111139;1236;94194;-80
2023/07/05 05:00:05;;;;;;;28.50;16.30;;;;;;;15.22;77.07;97181.64;111234;1236;94587;-80
2023/07/05 05:02:31;;;;;;;21.70;15.00;;;;;;;15.30;77.13;97178.36;111067;1236;98857;-80
2023/07/05 05:04:58;;;;;;;22.10;14.90;;;;;;;15.38;77.32;97176.38;111106;1236;94071;-79
2023/07/05 05:07:24;;;;;;;21.40;14.30;;;;;;;15.46;77.27;97176.00;111105;1237;94590;-80
2023/07/05 05:09:51;;;;;;;21.50;13.20;;;;;;;15.55;77.40;97175.73;111220;1236;94206;-80
2023/07/05 05:12:17;;;;;;;19.40;13.00;;;;;;;15.63;77.57;97170.87;111123;1236;106653;-80
2023/07/05 05:14:43;;;;;;;20.00;13.10;;;;;;;15.72;77.56;97172.07;111140;1236;94359;-80
2023/07/05 05:17:09;;;;;;;19.70;13.00;;;;;;;15.79;77.53;97173.77;111118;1236;94090;-80
2023/07/05 05:19:36;;;;;;;20.30;12.70;;;;;;;15.89;77.31;97167.22;111184;1236;94170;-80
2023/07/05 05:22:02;;;;;;;19.90;12.90;;;;;;;15.99;76.81;97168.98;111072;1236;107617;-80
2023/07/05 05:24:28;;;;;;;21.70;12.20;;;;;;;16.08;76.89;97166.27;111113;1236;94117;-80
2023/07/05 05:26:55;;;;;;;22.00;13.60;;;;;;;16.16;76.83;97160.56;111122;1236;94405;-80
2023/07/05 05:29:21;;;;;;;20.00;13.50;;;;;;;16.27;77.12;97163.26;111151;1236;94200;-80
2023/07/05 05:31:49;;;;;;;20.20;14.00;;;;;;;16.38;77.36;97162.95;111122;1236;99939;-80
2023/07/05 05:34:16;;;;;;;20.60;13.30;;;;;;;16.47;77.14;97166.16;111086;1236;94116;-80
2023/07/05 05:36:42;;;;;;;19.70;13.00;;;;;;;16.56;76.80;97168.39;111133;1237;94173;-80
2023/07/05 05:39:08;;;;;;;20.60;13.50;;;;;;;16.65;76.88;97162.53;111149;1236;94270;-80
2023/07/05 05:41:35;;;;;;;22.50;12.10;;;;;;;16.74;76.74;97161.17;111168;1240;94160;-80
2023/07/05 05:44:01;;;;;;;17.20;11.70;;;;;;;16.84;76.74;97157.09;111065;1241;94136;-80
2023/07/05 05:46:27;;;;;;;20.60;13.80;;;;;;;16.97;77.00;97151.91;111151;1236;94106;-80
2023/07/05 05:48:54;;;;;;;20.40;13.60;;;;;;;17.05;76.73;97149.97;111143;1238;94123;-80
2023/07/05 05:51:20;;;;;;;23.20;12.70;;;;;;;17.14;76.54;97153.05;111146;1238;94165;-80
2023/07/05 05:53:46;;;;;;;16.70;12.30;;;;;;;17.22;76.29;97151.38;111088;1236;94105;-80
2023/07/05 05:56:12;;;;;;;18.50;11.70;;;;;;;17.32;76.04;97148.30;111149;1236;94456;-80
2023/07/05 05:58:39;;;;;;;19.40;11.50;;;;;;;17.42;75.96;97146.58;111105;1236;94170;-80
2023/07/05 06:01:05;;;;;;;17.00;12.00;;;;;;;17.52;75.92;97145.84;111194;1236;94181;-80
2023/07/05 06:03:31;;;;;;;21.20;12.40;;;;;;;17.64;75.80;97145.55;111121;1236;94084;-80
2023/07/05 06:05:58;;;;;;;14.40;10.90;;;;;;;17.75;75.87;97151.27;111117;1240;94125;-80
2023/07/05 06:08:25;;;;;;;16.10;10.70;;;;;;;17.88;75.74;97147.85;111117;1236;94191;-80
2023/07/05 06:10:59;;;;;;;16.90;11.50;;;;;;;18.00;75.47;97147.11;111055;1236;94149;-80
2023/07/05 06:13:27;;;;;;;18.60;10.20;;;;;;;18.12;74.90;97145.73;111074;1236;98845;-80
2023/07/05 06:15:58;;;;;;;16.50;9.70;;;;;;;18.22;74.53;97148.14;111083;1236;94451;-80
2023/07/05 06:18:28;;;;;;;12.90;9.20;;;;;;;18.32;74.16;97148.24;111157;1236;94370;-80
2023/07/05 06:20:55;;;;;;;14.30;9.30;;;;;;;18.43;73.97;97142.60;111119;1236;102457;-80
2023/07/05 06:23:22;;;;;;;15.90;9.90;;;;;;;18.54;73.90;97139.97;111154;1236;94154;-81
2023/07/05 06:25:50;;;;;;;13.50;9.00;;;;;;;18.64;73.62;97136.86;111081;1236;94655;-80
2023/07/05 06:28:18;;;;;;;12.60;9.10;;;;;;;18.76;73.54;97134.27;110770;1239;94275;-80
2023/07/05 06:30:45;;;;;;;11.60;9.40;;;;;;;18.87;73.24;97135.59;110803;1241;94642;-80
2023/07/05 06:33:14;;;;;;;15.50;9.70;;;;;;;18.98;72.73;97129.92;110846;1239;102322;-80
2023/07/05 06:35:46;;;;;;;14.50;8.70;;;;;;;19.08;72.72;97124.79;110824;1239;101720;-81
2023/07/05 06:38:13;;;;;;;12.50;8.20;;;;;;;19.21;72.28;97119.11;110807;1239;99996;-80
2023/07/05 06:40:39;;;;;;;12.90;8.80;;;;;;;19.32;72.11;97117.95;110802;1239;94148;-80
2023/07/05 06:43:05;;;;;;;12.80;9.00;;;;;;;19.42;71.77;97119.92;110830;1239;94214;-80
2023/07/05 06:45:32;;;;;;;16.60;9.50;;;;;;;19.53;71.39;97116.71;110876;1243;94607;-80
2023/07/05 06:47:58;;;;;;;11.80;8.50;;;;;;;19.64;71.09;97113.15;110770;1239;100101;-80
2023/07/05 06:50:24;;;;;;;13.50;8.30;;;;;;;19.75;70.61;97113.73;110793;1239;94532;-80
2023/07/05 06:52:51;;;;;;;16.50;8.50;;;;;;;19.86;70.55;97111.46;110841;1239;94161;-80
2023/07/05 06:55:17;;;;;;;14.70;9.10;;;;;;;19.98;69.95;97117.08;110892;1239;94267;-80
2023/07/05 06:57:43;;;;;;;12.30;9.20;;;;;;;20.10;69.78;97113.25;110865;1239;100019;-80
2023/07/05 07:00:10;;;;;;;12.80;8.80;;;;;;;20.24;70.10;97113.15;110709;1239;94314;-80
2023/07/05 07:02:37;;;;;;;13.90;8.70;;;;;;;20.35;69.57;97109.51;110851;1244;94140;-80
2023/07/05 07:05:03;;;;;;;13.10;8.10;;;;;;;20.46;69.61;97108.70;110843;1239;94209;-80
2023/07/05 07:07:30;;;;;;;16.20;8.90;;;;;;;20.61;69.67;97107.36;110828;1239;94249;-80
2023/07/05 07:09:56;;;;;;;11.20;7.50;;;;;;;20.71;68.96;97104.39;110739;1241;94272;-80
2023/07/05 07:12:23;;;;;;;11.00;7.80;;;;;;;20.81;68.45;97104.11;110831;1239;94649;-80
2023/07/05 07:14:49;;;;;;;12.50;7.90;;;;;;;20.90;68.00;97099.77;110788;1240;94167;-80
2023/07/05 07:17:15;;;;;;;12.40;7.90;;;;;;;21.01;67.77;97103.27;110868;1239;94244;-80
2023/07/05 07:19:41;;;;;;;11.40;8.00;;;;;;;21.11;67.79;97100.33;110797;1239;94338;-80
2023/07/05 07:22:08;;;;;;;13.00;7.10;;;;;;;21.24;68.32;97097.23;110827;1239;94409;-81
2023/07/05 07:24:34;;;;;;;11.70;7.80;;;;;;;21.37;67.97;97096.48;110843;1239;94208;-81
2023/07/05 07:27:00;;;;;;;11.30;7.40;;;;;;;21.52;68.05;97097.45;110913;1239;94244;-81
2023/07/05 07:29:27;;;;;;;11.10;7.80;;;;;;;21.65;67.71;97095.07;110770;1239;94557;-80
2023/07/05 07:31:53;;;;;;;11.40;8.00;;;;;;;21.76;67.18;97095.50;111060;1241;94163;-81
2023/07/05 07:34:20;;;;;;;9.90;7.40;;;;;;;21.86;66.42;97091.44;111097;1238;94183;-81
2023/07/05 07:36:46;;;;;;;10.90;7.50;;;;;;;22.00;65.96;97094.95;111123;1241;94428;-81
2023/07/05 07:39:14;;;;;;;10.90;7.10;;;;;;;22.10;65.28;97095.98;111072;1238;94594;-81
2023/07/05 07:41:40;;;;;;;9.60;7.20;;;;;;;22.19;64.76;97094.29;111096;1241;94580;-81
2023/07/05 07:44:09;;;;;;;10.30;6.50;;;;;;;22.29;64.11;97091.41;111133;1237;94579;-81
2023/07/05 07:46:36;;;;;;;7.80;5.40;;;;;;;22.42;63.36;97089.44;111134;1238;94688;-81
2023/07/05 07:49:06;;;;;;;7.60;6.20;;;;;;;22.54;62.44;97088.73;111095;1241;99767;-81
2023/07/05 07:51:37;;;;;;;10.70;7.10;;;;;;;22.67;62.03;97088.99;111099;1236;94092;-81
2023/07/05 07:54:05;;;;;;;12.60;6.30;;;;;;;22.81;61.47;97092.27;111123;1241;94545;-80
2023/07/05 07:56:31;;;;;;;8.60;6.30;;;;;;;22.98;61.56;97089.07;111008;1240;102231;-81
2023/07/05 07:58:58;;;;;;;10.00;6.40;;;;;;;23.17;61.07;97088.06;110989;1236;94335;-81
2023/07/05 08:01:30;;;;;;;9.40;6.50;;;;;;;23.42;60.32;97085.12;111026;1237;94456;-81
2023/07/05 08:03:58;;;;;;;13.00;7.40;;;;;;;23.80;59.40;97080.48;111067;1240;94120;-81
2023/07/05 08:06:36;;;;;;;14.10;7.50;;;;;;;24.29;58.68;97080.60;111136;1237;94114;-82
2023/07/05 08:09:05;;;;;;;9.10;6.40;;;;;;;24.85;57.60;97076.48;111144;1238;101879;-81
2023/07/05 08:11:33;;;;;;;8.20;6.50;;;;;;;25.42;57.03;97078.54;111141;1239;101256;-82
2023/07/05 08:13:59;;;;;;;11.30;6.60;;;;;;;25.94;56.50;97074.15;111087;1236;94386;-81
2023/07/05 08:16:26;;;;;;;9.50;6.30;;;;;;;26.47;55.46;97075.31;111098;1236;94172;-81
2023/07/05 08:18:53;;;;;;;9.90;6.30;;;;;;;26.98;55.16;97074.34;111153;1240;94416;-81
2023/07/05 08:21:19;;;;;;;8.60;6.60;;;;;;;27.47;54.56;97070.49;111132;1236;94210;-82
2023/07/05 08:23:46;;;;;;;10.70;6.60;;;;;;;27.89;53.05;97066.53;111177;1240;94160;-82
2023/07/05 08:26:13;;;;;;;10.10;6.90;;;;;;;28.22;51.39;97066.08;111082;1240;94616;-82
2023/07/05 08:28:39;;;;;;;8.80;6.50;;;;;;;28.53;50.86;97064.95;111085;1237;94162;-82
2023/07/05 08:31:06;;;;;;;11.30;6.40;;;;;;;28.87;51.03;97061.11;111087;1238;94414;-81
2023/07/05 08:33:34;;;;;;;10.80;6.10;;;;;;;29.24;50.67;97063.21;111121;1237;94220;-82
2023/07/05 08:36:12;;;;;;;8.30;6.20;;;;;;;29.55;49.81;97061.14;111089;1236;94130;-82
2023/07/05 08:38:46;;;;;;;6.90;5.80;;;;;;;29.80;49.29;97060.99;111119;1238;94054;-82
2023/07/05 08:41:24;;;;;;;7.10;5.70;;;;;;;30.11;48.34;97061.89;111091;1236;94505;-83
2023/07/05 08:43:56;;;;;;;10.20;6.70;;;;;;;30.44;47.50;97064.21;111082;1237;102289;-82
2023/07/05 08:46:25;;;;;;;8.60;6.30;;;;;;;30.76;47.11;97058.19;111112;1236;101614;-82
2023/07/05 08:49:00;;;;;;;10.20;6.30;;;;;;;31.08;46.51;97058.95;111094;1237;99883;-81
2023/07/05 08:51:28;;;;;;;8.20;6.40;;;;;;;31.32;45.29;97061.64;111097;1236;94305;-82
2023/07/05 08:53:59;;;;;;;6.90;5.50;;;;;;;31.60;44.35;97056.95;111096;1238;94098;-82
2023/07/05 08:56:33;;;;;;;10.40;5.90;;;;;;;31.91;44.13;97056.94;111104;1236;102447;-83
2023/07/05 08:59:06;;;;;;;8.20;5.90;;;;;;;32.19;43.73;97051.86;111162;1236;101475;-83
2023/07/05 09:01:38;;;;;;;6.40;5.10;;;;;;;32.53;43.20;97051.35;111117;1238;100117;-83
2023/07/05 09:04:12;;;;;;;8.10;5.90;;;;;;;32.89;42.35;97047.27;111065;1236;94514;-83
2023/07/05 09:06:50;;;;;;;6.10;5.10;;;;;;;33.20;41.19;97044.84;111119;1237;94169;-83
2023/07/05 09:09:31;;;;;;;6.10;5.00;;;;;;;33.42;40.11;97043.64;111146;1240;109947;-83
2023/07/05 09:12:13;;;;;;;;;;;;;;;33.63;39.72;97040.92;111169;1238;99896;-83
2023/07/05 09:14:59;;;;;;;5.30;4.70;;;;;;;33.81;38.84;97042.83;111087;1238;98976;-83
2023/07/05 09:17:40;;;;;;;5.60;4.70;;;;;;;33.98;37.99;97032.16;111101;1238;94140;-84
2023/07/05 09:20:22;;;;;;;;;;;;;;;34.12;37.97;97029.88;111125;1236;94079;-82
2023/07/05 09:22:51;;;;;;;6.60;4.80;;;;;;;34.27;37.65;97025.10;111111;1237;100659;-83
2023/07/05 09:25:21;;;;;;;8.90;4.90;;;;;;;34.42;37.28;97024.08;111170;1238;99889;-84
2023/07/05 09:27:56;;;;;;;5.20;4.50;;;;;;;34.05;36.45;97023.13;111128;1237;99984;-83
2023/07/05 09:30:26;;;;;;;5.30;4.40;;;;;;;33.41;36.90;97022.83;111102;1238;94616;-83
2023/07/05 09:33:11;;;;;;;7.90;4.90;;;;;;;32.87;36.91;97020.15;111100;1236;94551;-82
2023/07/05 09:35:43;;;;;;;5.70;4.80;;;;;;;32.90;36.75;97019.27;111127;1236;102282;-83
2023/07/05 09:38:20;;;;;;;7.70;4.70;;;;;;;33.06;35.98;97016.50;111159;1238;98918;-84
2023/07/05 09:40:51;;;;;;;5.20;4.40;;;;;;;33.24;35.48;97017.13;111134;1237;98806;-83
2023/07/05 09:43:35;;;;;;;5.90;5.10;;;;;;;33.42;34.99;97015.91;111064;1238;94086;-82
2023/07/05 09:46:07;;;;;;;6.40;4.80;;;;;;;33.56;34.63;97010.73;111082;1237;94121;-82
2023/07/05 09:48:46;;;;;;;7.40;4.50;;;;;;;33.66;34.75;97007.25;111110;1237;101069;-82
2023/07/05 09:51:17;;;;;;;8.80;4.90;;;;;;;33.70;34.76;97002.70;111123;1237;100206;-83
2023/07/05 09:54:02;;;;;;;6.90;4.50;;;;;;;33.76;34.57;97003.46;111085;1238;107572;-85
2023/07/05 09:56:28;;;;;;;5.80;4.70;;;;;;;33.89;34.60;97001.71;111122;1238;94157;-83
2023/07/05 09:59:15;;;;;;;7.30;4.30;;;;;;;34.03;33.98;96999.55;110804;1239;94186;-85
2023/07/05 10:01:44;;;;;;;5.90;4.40;;;;;;;34.11;33.52;96997.61;110836;1244;102199;-83
2023/07/05 10:04:11;;;;;;;6.20;4.10;;;;;;;34.19;34.40;96999.48;110833;1240;100368;-83
2023/07/05 10:06:41;;;;;;;5.00;4.00;;;;;;;34.16;34.32;96995.78;110819;1239;94152;-83
2023/07/05 10:09:24;;;;;;;5.30;4.20;;;;;;;34.03;34.03;96996.67;110823;1239;94258;-84
2023/07/05 10:11:57;;;;;;;6.30;4.30;;;;;;;33.57;33.51;96996.94;110822;1239;94190;-82
2023/07/05 10:14:32;;;;;;;4.50;4.10;;;;;;;33.36;33.79;96995.48;110844;1241;102491;-83
2023/07/05 10:17:05;;;;;;;5.80;4.50;;;;;;;33.15;33.87;96991.76;110833;1239;101544;-84
2023/07/05 10:19:38;;;;;;;5.60;4.60;;;;;;;33.25;33.69;96988.39;110711;1241;100042;-82
2023/07/05 10:22:15;;;;;;;5.80;4.60;;;;;;;33.37;33.78;96988.80;110664;1241;94478;-84
2023/07/05 10:24:45;;;;;;;5.90;4.50;;;;;;;33.50;33.20;96986.32;110672;1241;94568;-83
2023/07/05 10:27:31;;;;;;;7.10;4.50;;;;;;;33.55;33.61;96983.22;110702;1241;99755;-81
2023/07/05 10:30:01;;;;;;;6.80;4.60;;;;;;;33.65;33.46;96987.25;110820;1238;109175;-84
2023/07/05 10:32:29;;;;;;;4.90;4.20;;;;;;;33.61;32.92;96984.77;110890;1238;100077;-82
2023/07/05 10:34:56;;;;;;;5.40;4.40;;;;;;;33.62;32.97;96986.80;110869;1238;94298;-83
2023/07/05 10:37:35;;;;;;;6.70;4.30;;;;;;;33.65;32.82;96979.34;110878;1238;94142;-83
2023/07/05 10:40:09;;;;;;;5.50;4.80;;;;;;;33.82;33.61;96979.43;110944;1238;101083;-84
2023/07/05 10:42:39;;;;;;;7.50;4.60;;;;;;;33.97;33.40;96978.33;110706;1238;102969;-84
2023/07/05 10:45:09;;;;;;;4.50;4.10;;;;;;;33.98;32.96;96976.27;110889;1238;107981;-83
2023/07/05 10:47:36;;;;;;;6.90;4.50;;;;;;;34.06;32.19;96971.35;110867;1242;94657;-82
2023/07/05 10:50:09;;;;;;;6.60;4.40;;;;;;;34.11;31.79;96968.30;110983;1236;94201;-84
2023/07/05 10:52:55;;;;;;;4.80;4.10;;;;;;;34.08;32.19;96958.73;111100;1236;102505;-84
2023/07/05 10:55:31;;;;;;;8.70;4.70;;;;;;;34.16;32.45;96963.44;111121;1236;100385;-83
2023/07/05 10:58:14;;;;;;;5.00;4.30;;;;;;;34.24;32.06;96963.83;111127;1237;98428;-81
2023/07/05 11:00:46;;;;;;;5.20;4.40;;;;;;;34.32;31.98;96963.23;111021;1237;94459;-83
2023/07/05 11:03:38;;;;;;;4.70;4.10;;;;;;;34.33;31.55;96960.62;111092;1236;94177;-82
2023/07/05 11:06:06;;;;;;;6.10;4.30;;;;;;;34.35;31.91;96956.88;111140;1237;100776;-83
2023/07/05 11:08:37;;;;;;;5.70;4.00;;;;;;;34.41;32.25;96954.50;111117;1237;94155;-82
2023/07/05 11:11:11;;;;;;;;;;;;;;;34.51;32.20;96952.01;111057;1236;100000;-82
2023/07/05 11:13:37;;;;;;;18.40;7.80;;;;;;;34.55;31.42;96947.08;111086;1237;94109;-85
2023/07/05 11:16:04;;;;;;;22.70;8.90;;;;;;;34.50;31.04;96941.59;111167;1236;94573;-85
2023/07/05 11:18:31;;;;;;;9.90;4.70;;;;;;;34.45;30.80;96935.76;111135;1237;94197;-83
2023/07/05 11:20:59;;;;;;;10.40;5.00;;;;;;;34.46;30.30;96942.39;111124;1238;94142;-84
2023/07/05 11:23:44;;;;;;;5.40;4.30;;;;;;;34.46;29.93;96941.52;111115;1238;94168;-83
2023/07/05 11:26:12;;;;;;;6.00;4.50;;;;;;;34.31;30.02;96938.39;111104;1236;94137;-84
2023/07/05 11:28:41;;;;;;;5.20;4.20;;;;;;;34.05;29.86;96937.83;111132;1236;94147;-84